Map

Track Data

SID SEASON NUMBER BASIN SUBBASIN NAME ISO_TIME NATURE LAT LON WMO_WIND WMO_PRES WMO_AGENCY TRACK_TYPE DIST2LAND LANDFALL IFLAG USA_AGENCY USA_ATCF_ID USA_LAT USA_LON USA_RECORD USA_STATUS USA_WIND USA_PRES USA_SSHS USA_R34_NE USA_R34_SE USA_R34_SW USA_R34_NW USA_R50_NE USA_R50_SE USA_R50_SW USA_R50_NW USA_R64_NE USA_R64_SE USA_R64_SW USA_R64_NW USA_POCI USA_ROCI USA_RMW USA_EYE TOKYO_LAT TOKYO_LON TOKYO_GRADE TOKYO_WIND TOKYO_PRES TOKYO_R50_DIR TOKYO_R50_LONG TOKYO_R50_SHORT TOKYO_R30_DIR TOKYO_R30_LONG TOKYO_R30_SHORT TOKYO_LAND CMA_LAT CMA_LON CMA_CAT CMA_WIND CMA_PRES HKO_LAT HKO_LON HKO_CAT HKO_WIND HKO_PRES NEWDELHI_LAT NEWDELHI_LON NEWDELHI_GRADE NEWDELHI_WIND NEWDELHI_PRES NEWDELHI_CI NEWDELHI_DP NEWDELHI_POCI REUNION_LAT REUNION_LON REUNION_TYPE REUNION_WIND REUNION_PRES REUNION_TNUM REUNION_CI REUNION_RMW REUNION_R34_NE REUNION_R34_SE REUNION_R34_SW REUNION_R34_NW REUNION_R50_NE REUNION_R50_SE REUNION_R50_SW REUNION_R50_NW REUNION_R64_NE REUNION_R64_SE REUNION_R64_SW REUNION_R64_NW BOM_LAT BOM_LON BOM_TYPE BOM_WIND BOM_PRES BOM_TNUM BOM_CI BOM_RMW BOM_R34_NE BOM_R34_SE BOM_R34_SW BOM_R34_NW BOM_R50_NE BOM_R50_SE BOM_R50_SW BOM_R50_NW BOM_R64_NE BOM_R64_SE BOM_R64_SW BOM_R64_NW BOM_ROCI BOM_POCI BOM_EYE BOM_POS_METHOD BOM_PRES_METHOD NADI_LAT NADI_LON NADI_CAT NADI_WIND NADI_PRES WELLINGTON_LAT WELLINGTON_LON WELLINGTON_WIND WELLINGTON_PRES DS824_LAT DS824_LON DS824_STAGE DS824_WIND DS824_PRES TD9636_LAT TD9636_LON TD9636_STAGE TD9636_WIND TD9636_PRES TD9635_LAT TD9635_LON TD9635_WIND TD9635_PRES TD9635_ROCI NEUMANN_LAT NEUMANN_LON NEUMANN_CLASS NEUMANN_WIND NEUMANN_PRES MLC_LAT MLC_LON MLC_CLASS MLC_WIND MLC_PRES USA_GUST BOM_GUST BOM_GUST_PER REUNION_GUST REUNION_GUST_PER USA_SEAHGT USA_SEARAD_NE USA_SEARAD_SE USA_SEARAD_SW USA_SEARAD_NW STORM_SPEED STORM_DIR
1956007S19042 1956 3 SI MM NOT_NAMED 1956-01-07 06:00:00 TS -19.3000 41.8000 main 252 243 O________OO___ jtwc_sh SH081956 -19.3000 41.8000 -1 -19.3000 41.8000 TC 25 -19.3000 41.8000 7 4 154
1956007S19042 1956 3 SI MM NOT_NAMED 1956-01-07 09:00:00 TS -19.5011 41.8983 main 245 233 P________PP___ SH081956 -19.5000 41.9000 -1 -19.5000 41.9000 TC 25 -19.5032 41.8952 7 4 155
1956007S19042 1956 3 SI MM NOT_NAMED 1956-01-07 12:00:00 TS -19.7017 41.9974 main 233 212 O________OP___ jtwc_sh SH081956 -19.7000 42.0000 -1 -19.7000 42.0000 TC 25 -19.7050 41.9923 7 4 155
1956007S19042 1956 3 SI MM NOT_NAMED 1956-01-07 15:00:00 TS -19.9015 42.0978 main 212 193 P________PP___ SH081956 -19.9000 42.1000 -1 -19.9000 42.1000 TC 30 -19.9044 42.0934 7 4 155
1956007S19042 1956 3 SI MM NOT_NAMED 1956-01-07 18:00:00 TS -20.1000 42.2000 main 193 175 O________OO___ jtwc_sh SH081956 -20.1000 42.2000 -1 -20.1000 42.2000 TC 35 -20.1000 42.2000 2 4 155
1956007S19042 1956 3 SI MM NOT_NAMED 1956-01-07 21:00:00 TS -20.3017 42.2996 main 175 152 P________PP___ SH081956 -20.3075 42.2925 -1 -20.3075 42.2925 TC 35 -20.2903 42.3138 2 4 153
1956007S19042 1956 3 SI MM NOT_NAMED 1956-01-08 00:00:00 TS -20.4908 42.4117 main 152 129 O________OP___ jtwc_sh SH081956 -20.5000 42.4000 -1 -20.5000 42.4000 TC 35 -20.4725 42.4351 2 4 147
1956007S19042 1956 3 SI MM NOT_NAMED 1956-01-08 03:00:00 TS -20.6578 42.5496 main 129 121 P________PP___ SH081956 -20.6650 42.5425 -1 -20.6650 42.5425 TC 35 -20.6434 42.5638 2 2 143
1956007S19042 1956 3 SI MM NOT_NAMED 1956-01-08 06:00:00 TS -20.6846 42.5692 reunion main 121 121 O____O___OO___ jtwc_sh SH081956 -20.8000 42.7000 -1 -19.3000 41.0000 99 9.90000 -20.8000 42.7000 TC 35 -20.8000 42.7000 2 1 118
1956007S19042 1956 3 SI MM NOT_NAMED 1956-01-08 09:00:00 TS -20.6843 42.6079 main 121 114 P____P___PP___ SH081956 -20.9000 42.8501 -1 -19.3114 41.1691 99 -20.9000 42.8501 TC 35 -20.9394 42.8429 2 1 89
1956007S19042 1956 3 SI MM NOT_NAMED 1956-01-08 12:00:00 TS -20.6833 42.6677 main 114 114 O____P___OP___ jtwc_sh SH081956 -21.0000 43.0000 -1 -19.3301 41.3481 99 -21.0000 43.0000 TC 35 -21.0650 42.9926 2 1 102
1956007S19042 1956 3 SI MM NOT_NAMED 1956-01-08 15:00:00 TS -20.7116 42.7483 main 114 91 P____P___PP___ SH081956 -21.1500 43.1500 -1 -19.3633 41.5472 99 -21.1500 43.1500 TC 35 -21.1831 43.1460 2 3 122
1956007S19042 1956 3 SI MM NOT_NAMED 1956-01-08 18:00:00 TS -20.8296 42.9191 main 91 69 O____P___OO___ jtwc_sh SH081956 -21.3000 43.3000 -1 -19.4183 41.7763 99 -21.3000 43.3000 TC 35 -21.3000 43.3000 2 4 124
1956007S19042 1956 3 SI MM NOT_NAMED 1956-01-08 21:00:00 TS -20.9266 43.0839 main 69 49 P____P___PP___ SH081956 -21.4000 43.4501 -1 -19.5024 42.0457 99 -21.4000 43.4501 TC 35 -21.4040 43.3899 2 4 122
1956007S19042 1956 3 SI MM NOT_NAMED 1956-01-09 00:00:00 TS -21.0335 43.2637 main 49 24 O____P___OP___ jtwc_sh SH081956 -21.5000 43.6000 -1 -19.6227 42.3657 99 -21.5000 43.6000 TC 35 -21.5113 43.4889 2 4 125
1956007S19042 1956 3 SI MM NOT_NAMED 1956-01-09 03:00:00 TS -21.1660 43.4540 main 22 10 P____P___PP___ SH081956 -21.6198 43.7128 -1 -19.7862 42.7469 99 -21.6198 43.7128 TC 35 -21.6380 43.6434 2 5 126
1956007S19042 1956 3 SI MM NOT_NAMED 1956-01-09 06:00:00 TS -21.3500 43.7250 reunion main 10 0 O____O___OO___ jtwc_sh SH081956 -21.8000 43.9000 -1 -20.0000 43.2000 99 9.90000 -21.8000 43.9000 TC 35 -21.8000 43.9000 2 8 127
1956007S19042 1956 3 SI MM NOT_NAMED 1956-01-09 09:00:00 TS -21.6297 44.1208 main 0 0 P____P___PP___ SH081956 -22.0923 44.2249 -1 -20.2670 43.7304 99 -22.0923 44.2249 TC 35 -22.0673 44.3030 2 10 125
1956007S19042 1956 3 SI MM NOT_NAMED 1956-01-09 12:00:00 TS -21.9338 44.6333 main 0 0 O____P___OP___ jtwc_sh SH081956 -22.4000 44.7000 -1 -20.5747 44.3210 99 -22.4000 44.7000 TC 35 -22.3605 44.8120 2 12 119
1956007S19042 1956 3 SI MM NOT_NAMED 1956-01-09 15:00:00 TS -22.2090 45.2446 main 0 0 P____P___PP___ SH081956 -22.6527 45.3196 -1 -20.9073 44.9487 99 -22.6527 45.3196 TC 35 -22.6233 45.3903 2 13 112
1956007S19042 1956 3 SI MM NOT_NAMED 1956-01-09 18:00:00 TS -22.4122 45.8975 main 0 0 O____P___OO___ jtwc_sh SH081956 -22.8000 46.0000 -1 -21.2488 45.5899 99 -22.8000 46.0000 TC 35 -22.8000 46.0000 2 12 104
1956007S19042 1956 3 SI MM NOT_NAMED 1956-01-09 21:00:00 TS -22.4990 46.5101 main 0 0 P____P___PP___ SH081956 -22.7947 46.6079 -1 -21.5838 46.2204 99 -22.7947 46.6079 TC 30 -22.8228 46.6044 2 11 95
1956007S19042 1956 3 SI MM NOT_NAMED 1956-01-10 00:00:00 TS -22.5131 47.1101 main 0 0 O____P___OP___ jtwc_sh SH081956 -22.7000 47.2000 -1 -21.8971 46.8156 99 -22.7000 47.2000 TC 25 -22.7555 47.2246 2 11 90
1956007S19042 1956 3 SI MM NOT_NAMED 1956-01-10 03:00:00 TS -22.5061 47.7070 main 0 0 P____P___PP___ SH081956 -22.6075 47.8226 -1 -22.1740 47.3506 99 -22.6075 47.8226 TC 25 -22.6353 47.8323 2 11 88
1956007S19042 1956 3 SI MM NOT_NAMED 1956-01-10 06:00:00 TS -22.4750 48.2500 reunion main 41 30 O____O___OO___ jtwc_sh SH081956 -22.5000 48.4000 -1 -22.4000 47.8000 99 9.90000 -22.5000 48.4000 TC 25 -22.5000 48.4000 1 9 86
1956007S19042 1956 3 SI MM NOT_NAMED 1956-01-10 09:00:00 TS -22.4436 48.6946 main 75 75 P____P___PP___ SH081956 -22.3997 48.8724 -1 -22.5648 48.1449 99 -22.3997 48.8724 TC 25 -22.4101 48.8887 1 8 84
1956007S19042 1956 3 SI MM NOT_NAMED 1956-01-10 12:00:00 TS -22.3967 49.0823 main 112 112 O____P___OP___ jtwc_sh SH081956 -22.3000 49.3000 -1 -22.6732 48.3922 99 -22.3000 49.3000 TC 25 -22.3135 49.3370 1 7 81
1956007S19042 1956 3 SI MM NOT_NAMED 1956-01-10 15:00:00 TS -22.3359 49.4556 main 145 145 P____P___PP___ SH081956 -22.1999 49.7499 -1 -22.7338 48.5555 99 -22.1999 49.7499 TC 25 -22.2103 49.7668 1 7 79
1956007S19042 1956 3 SI MM NOT_NAMED 1956-01-10 18:00:00 TS -22.2636 49.8122 main 174 174 O____P___OO___ jtwc_sh SH081956 -22.1000 50.2000 -1 -22.7545 48.6487 99 -22.1000 50.2000 TC 25 -22.1000 50.2000 1 7 76
1956007S19042 1956 3 SI MM NOT_NAMED 1956-01-10 21:00:00 TS -22.1749 50.1598 main 210 210 P____P___PP___ SH081956 -22.0073 50.6423 -1 -22.7436 48.6857 99 -22.0073 50.6423 TC 25 -21.9413 50.6686 1 8 73
1956007S19042 1956 3 SI MM NOT_NAMED 1956-01-11 00:00:00 TS -22.0304 50.6278 main 246 246 O____P___OP___ jtwc_sh SH081956 -21.9000 51.1000 -1 -22.7090 48.6805 99 -21.9000 51.1000 TC 25 -21.7821 51.1438 1 10 71
1956007S19042 1956 3 SI MM NOT_NAMED 1956-01-11 03:00:00 TS -21.8403 51.1846 main 303 303 P____P___PP___ SH081956 -21.7275 51.6003 -1 -22.6585 48.6473 99 -21.7275 51.6003 TC 25 -21.6569 51.6220 1 12 72
1956007S19042 1956 3 SI MM NOT_NAMED 1956-01-11 06:00:00 TS -21.6769 51.8308 reunion main 358 285 O____O___OO___ jtwc_sh SH081956 -21.6000 52.1000 -1 -22.6000 48.6000 99 9.90000 -21.6000 52.1000 TC 25 -21.6000 52.1000 1 13 80
1956007S19042 1956 3 SI MM NOT_NAMED 1956-01-11 09:00:00 TS -21.6024 52.5677 main 274 237 P________PP___ SH081956 -21.5973 52.5500 -1 99 -21.5973 52.5500 TC 25 -21.6126 52.6030 1 11 91
1956007S19042 1956 3 SI MM NOT_NAMED 1956-01-11 12:00:00 TS -21.7001 53.0341 main 237 192 O________OP___ jtwc_sh SH081956 -21.7000 53.0000 -1 99 -21.7000 53.0000 TC 25 -21.7003 53.1022 1 9 106
1956007S19042 1956 3 SI MM NOT_NAMED 1956-01-11 15:00:00 TS -21.8626 53.5350 main 197 161 P________PP___ SH081956 -21.8626 53.5149 -1 99 -21.8626 53.5149 TC 25 -21.8627 53.5752 1 10 114
1956007S19042 1956 3 SI MM NOT_NAMED 1956-01-11 18:00:00 TS -22.1000 54.0000 main 161 151 O________OO___ jtwc_sh SH081956 -22.1000 54.0000 -1 99 -22.1000 54.0000 TC 25 -22.1000 54.0000 1 9 123
1956007S19042 1956 3 SI MM NOT_NAMED 1956-01-11 21:00:00 TS -22.3780 54.3787 main 154 148 P________PP___ SH081956 -22.3623 54.3877 -1 99 -22.3623 54.3877 TC 25 -22.4092 54.3608 1 9 134
1956007S19042 1956 3 SI MM NOT_NAMED 1956-01-12 00:00:00 TS -22.7249 54.6897 main 168 168 O________OP___ jtwc_sh SH081956 -22.7000 54.7000 -1 99 -22.7000 54.7000 TC 25 -22.7748 54.6690 1 9 145
1956007S19042 1956 3 SI MM NOT_NAMED 1956-01-12 03:00:00 TS -23.1428 54.9557 main 199 199 P________PP___ SH081956 -23.1251 54.9621 -1 99 -23.1251 54.9621 TC 25 -23.1781 54.9427 1 10 152
1956007S19042 1956 3 SI MM NOT_NAMED 1956-01-12 06:00:00 TS -23.6000 55.2000 main 249 O________OO___ jtwc_sh SH081956 -23.6000 55.2000 -1 -23.6000 55.2000 TC 25 -23.6000 55.2000 1 10 154

About IBTrACS Database

This database is a web-friendly format of International Best Track Archive for Climate Stewardship (IBTrACS), a global best track data archive curated by NOAA dating back to 1842.

Updated: 2021-10-08